sensor_id;sensor_type;location;lat;lon;timestamp;P1;durP1;ratioP1;P2;durP2;ratioP2
24233;SDS011;12365;43.554;1.388;2022-07-10T00:01:23;2.95;;;1.60;;
24233;SDS011;12365;43.554;1.388;2022-07-10T00:03:48;2.53;;;1.40;;
24233;SDS011;12365;43.554;1.388;2022-07-10T00:06:15;3.15;;;1.55;;
24233;SDS011;12365;43.554;1.388;2022-07-10T00:08:43;6.72;;;1.63;;
24233;SDS011;12365;43.554;1.388;2022-07-10T00:11:08;3.05;;;1.65;;
24233;SDS011;12365;43.554;1.388;2022-07-10T00:13:35;3.90;;;1.48;;
24233;SDS011;12365;43.554;1.388;2022-07-10T00:16:00;2.80;;;1.48;;
24233;SDS011;12365;43.554;1.388;2022-07-10T00:18:27;3.95;;;1.50;;
24233;SDS011;12365;43.554;1.388;2022-07-10T00:20:55;4.20;;;1.60;;
24233;SDS011;12365;43.554;1.388;2022-07-10T00:23:20;3.47;;;1.60;;
24233;SDS011;12365;43.554;1.388;2022-07-10T00:25:46;2.65;;;1.25;;
24233;SDS011;12365;43.554;1.388;2022-07-10T00:28:11;6.13;;;1.40;;
24233;SDS011;12365;43.554;1.388;2022-07-10T00:30:37;1.92;;;1.30;;
24233;SDS011;12365;43.554;1.388;2022-07-10T00:33:03;3.28;;;1.30;;
24233;SDS011;12365;43.554;1.388;2022-07-10T00:35:28;2.28;;;1.20;;
24233;SDS011;12365;43.554;1.388;2022-07-10T00:37:54;3.40;;;1.27;;
24233;SDS011;12365;43.554;1.388;2022-07-10T00:40:19;2.38;;;1.30;;
24233;SDS011;12365;43.554;1.388;2022-07-10T00:42:45;4.97;;;1.30;;
24233;SDS011;12365;43.554;1.388;2022-07-10T00:45:10;1.85;;;1.13;;
24233;SDS011;12365;43.554;1.388;2022-07-10T00:47:36;2.88;;;1.40;;
24233;SDS011;12365;43.554;1.388;2022-07-10T00:50:02;5.65;;;1.40;;
24233;SDS011;12365;43.554;1.388;2022-07-10T00:52:28;4.57;;;1.30;;
24233;SDS011;12365;43.554;1.388;2022-07-10T00:54:54;3.35;;;1.40;;
24233;SDS011;12365;43.554;1.388;2022-07-10T00:57:20;2.00;;;1.25;;
24233;SDS011;12365;43.554;1.388;2022-07-10T00:59:47;2.90;;;1.10;;
24233;SDS011;12365;43.554;1.388;2022-07-10T01:02:14;3.65;;;1.30;;
24233;SDS011;12365;43.554;1.388;2022-07-10T01:04:41;3.08;;;1.45;;
24233;SDS011;12365;43.554;1.388;2022-07-10T01:07:07;2.55;;;1.20;;
24233;SDS011;12365;43.554;1.388;2022-07-10T01:09:32;2.88;;;1.25;;
24233;SDS011;12365;43.554;1.388;2022-07-10T01:12:01;2.83;;;1.23;;
24233;SDS011;12365;43.554;1.388;2022-07-10T01:14:28;3.15;;;1.27;;
24233;SDS011;12365;43.554;1.388;2022-07-10T01:16:55;3.72;;;1.45;;
24233;SDS011;12365;43.554;1.388;2022-07-10T01:19:21;2.65;;;1.20;;
24233;SDS011;12365;43.554;1.388;2022-07-10T01:21:46;1.65;;;1.30;;
24233;SDS011;12365;43.554;1.388;2022-07-10T01:24:11;1.92;;;1.23;;
24233;SDS011;12365;43.554;1.388;2022-07-10T01:26:37;4.60;;;1.38;;
24233;SDS011;12365;43.554;1.388;2022-07-10T01:29:07;2.85;;;1.40;;
24233;SDS011;12365;43.554;1.388;2022-07-10T01:31:32;2.65;;;1.30;;
24233;SDS011;12365;43.554;1.388;2022-07-10T01:34:01;5.63;;;1.38;;
24233;SDS011;12365;43.554;1.388;2022-07-10T01:36:29;3.92;;;1.40;;
24233;SDS011;12365;43.554;1.388;2022-07-10T01:38:55;5.03;;;1.20;;
24233;SDS011;12365;43.554;1.388;2022-07-10T01:41:22;4.35;;;1.30;;
24233;SDS011;12365;43.554;1.388;2022-07-10T01:43:47;5.60;;;1.40;;
24233;SDS011;12365;43.554;1.388;2022-07-10T01:46:13;7.57;;;1.50;;
24233;SDS011;12365;43.554;1.388;2022-07-10T01:48:40;4.63;;;1.40;;
24233;SDS011;12365;43.554;1.388;2022-07-10T01:51:06;2.03;;;1.23;;
24233;SDS011;12365;43.554;1.388;2022-07-10T01:53:32;1.75;;;1.10;;
24233;SDS011;12365;43.554;1.388;2022-07-10T01:55:58;4.18;;;1.70;;
24233;SDS011;12365;43.554;1.388;2022-07-10T01:58:25;3.75;;;1.58;;
24233;SDS011;12365;43.554;1.388;2022-07-10T02:00:50;2.53;;;1.30;;
24233;SDS011;12365;43.554;1.388;2022-07-10T02:03:16;6.18;;;1.48;;
24233;SDS011;12365;43.554;1.388;2022-07-10T02:06:00;3.50;;;1.40;;
24233;SDS011;12365;43.554;1.388;2022-07-10T02:08:25;4.68;;;1.40;;
24233;SDS011;12365;43.554;1.388;2022-07-10T02:10:50;5.03;;;1.60;;
24233;SDS011;12365;43.554;1.388;2022-07-10T02:13:16;3.88;;;1.33;;
24233;SDS011;12365;43.554;1.388;2022-07-10T02:15:45;5.05;;;1.50;;
24233;SDS011;12365;43.554;1.388;2022-07-10T02:18:13;9.40;;;1.48;;
24233;SDS011;12365;43.554;1.388;2022-07-10T02:20:39;2.72;;;1.20;;
24233;SDS011;12365;43.554;1.388;2022-07-10T02:23:05;3.10;;;1.42;;
24233;SDS011;12365;43.554;1.388;2022-07-10T02:25:31;4.40;;;1.60;;
24233;SDS011;12365;43.554;1.388;2022-07-10T02:27:57;4.38;;;1.50;;
24233;SDS011;12365;43.554;1.388;2022-07-10T02:30:22;2.35;;;1.55;;
24233;SDS011;12365;43.554;1.388;2022-07-10T02:32:48;3.10;;;1.35;;
24233;SDS011;12365;43.554;1.388;2022-07-10T02:35:13;8.38;;;1.55;;
24233;SDS011;12365;43.554;1.388;2022-07-10T02:37:39;6.72;;;1.70;;
24233;SDS011;12365;43.554;1.388;2022-07-10T02:40:04;5.72;;;1.60;;
24233;SDS011;12365;43.554;1.388;2022-07-10T02:42:30;3.00;;;1.60;;
24233;SDS011;12365;43.554;1.388;2022-07-10T02:44:56;6.07;;;1.77;;
24233;SDS011;12365;43.554;1.388;2022-07-10T02:47:21;3.83;;;2.00;;
24233;SDS011;12365;43.554;1.388;2022-07-10T02:49:46;3.53;;;2.25;;
24233;SDS011;12365;43.554;1.388;2022-07-10T02:52:12;5.00;;;2.30;;
24233;SDS011;12365;43.554;1.388;2022-07-10T02:54:37;6.18;;;2.38;;
24233;SDS011;12365;43.554;1.388;2022-07-10T02:57:03;4.78;;;2.22;;
24233;SDS011;12365;43.554;1.388;2022-07-10T02:59:29;6.82;;;2.25;;
24233;SDS011;12365;43.554;1.388;2022-07-10T03:01:54;6.03;;;2.42;;
24233;SDS011;12365;43.554;1.388;2022-07-10T03:04:19;5.97;;;3.17;;
24233;SDS011;12365;43.554;1.388;2022-07-10T03:06:45;7.22;;;3.53;;
24233;SDS011;12365;43.554;1.388;2022-07-10T03:09:11;6.05;;;3.65;;
24233;SDS011;12365;43.554;1.388;2022-07-10T03:11:36;8.32;;;3.25;;
24233;SDS011;12365;43.554;1.388;2022-07-10T03:14:01;5.60;;;3.13;;
24233;SDS011;12365;43.554;1.388;2022-07-10T03:16:27;5.55;;;3.10;;
24233;SDS011;12365;43.554;1.388;2022-07-10T03:18:53;7.88;;;2.83;;
24233;SDS011;12365;43.554;1.388;2022-07-10T03:21:18;7.47;;;2.47;;
24233;SDS011;12365;43.554;1.388;2022-07-10T03:23:43;6.97;;;2.28;;
24233;SDS011;12365;43.554;1.388;2022-07-10T03:26:09;3.83;;;1.85;;
24233;SDS011;12365;43.554;1.388;2022-07-10T03:28:34;7.35;;;1.98;;
24233;SDS011;12365;43.554;1.388;2022-07-10T03:31:00;5.35;;;1.95;;
24233;SDS011;12365;43.554;1.388;2022-07-10T03:33:27;4.40;;;1.80;;
24233;SDS011;12365;43.554;1.388;2022-07-10T03:35:52;1.80;;;1.50;;
24233;SDS011;12365;43.554;1.388;2022-07-10T03:38:18;5.72;;;1.70;;
24233;SDS011;12365;43.554;1.388;2022-07-10T03:40:43;4.10;;;1.45;;
24233;SDS011;12365;43.554;1.388;2022-07-10T03:43:12;7.50;;;1.40;;
24233;SDS011;12365;43.554;1.388;2022-07-10T03:45:38;5.55;;;1.60;;
24233;SDS011;12365;43.554;1.388;2022-07-10T03:48:03;5.20;;;1.20;;
24233;SDS011;12365;43.554;1.388;2022-07-10T03:50:29;7.35;;;1.45;;
24233;SDS011;12365;43.554;1.388;2022-07-10T03:52:54;1.88;;;1.20;;
24233;SDS011;12365;43.554;1.388;2022-07-10T03:55:20;2.35;;;1.30;;
24233;SDS011;12365;43.554;1.388;2022-07-10T03:57:45;4.22;;;1.35;;
24233;SDS011;12365;43.554;1.388;2022-07-10T04:00:27;4.07;;;1.35;;
24233;SDS011;12365;43.554;1.388;2022-07-10T04:02:57;3.05;;;1.50;;
24233;SDS011;12365;43.554;1.388;2022-07-10T04:05:23;3.73;;;1.47;;
24233;SDS011;12365;43.554;1.388;2022-07-10T04:07:50;2.80;;;1.30;;
24233;SDS011;12365;43.554;1.388;2022-07-10T04:10:15;5.25;;;1.40;;
24233;SDS011;12365;43.554;1.388;2022-07-10T04:12:41;3.38;;;1.45;;
24233;SDS011;12365;43.554;1.388;2022-07-10T04:15:07;4.53;;;1.27;;
24233;SDS011;12365;43.554;1.388;2022-07-10T04:17:33;2.75;;;1.60;;
24233;SDS011;12365;43.554;1.388;2022-07-10T04:19:59;2.72;;;1.40;;
24233;SDS011;12365;43.554;1.388;2022-07-10T04:22:25;4.57;;;1.33;;
24233;SDS011;12365;43.554;1.388;2022-07-10T04:24:54;2.65;;;1.50;;
24233;SDS011;12365;43.554;1.388;2022-07-10T04:27:19;3.80;;;1.45;;
24233;SDS011;12365;43.554;1.388;2022-07-10T04:29:45;3.03;;;1.38;;
24233;SDS011;12365;43.554;1.388;2022-07-10T04:32:11;4.95;;;1.50;;
24233;SDS011;12365;43.554;1.388;2022-07-10T04:34:37;3.47;;;1.48;;
24233;SDS011;12365;43.554;1.388;2022-07-10T04:37:02;5.07;;;1.52;;
24233;SDS011;12365;43.554;1.388;2022-07-10T04:39:28;3.42;;;1.58;;
24233;SDS011;12365;43.554;1.388;2022-07-10T04:41:53;2.60;;;1.48;;
24233;SDS011;12365;43.554;1.388;2022-07-10T04:44:19;4.35;;;1.77;;
24233;SDS011;12365;43.554;1.388;2022-07-10T04:46:44;3.78;;;1.40;;
24233;SDS011;12365;43.554;1.388;2022-07-10T04:49:10;4.85;;;1.40;;
24233;SDS011;12365;43.554;1.388;2022-07-10T04:51:35;2.35;;;1.38;;
24233;SDS011;12365;43.554;1.388;2022-07-10T04:54:01;2.15;;;1.35;;
24233;SDS011;12365;43.554;1.388;2022-07-10T04:56:26;3.53;;;1.50;;
24233;SDS011;12365;43.554;1.388;2022-07-10T04:58:52;3.47;;;1.40;;
24233;SDS011;12365;43.554;1.388;2022-07-10T05:01:17;2.47;;;1.60;;
24233;SDS011;12365;43.554;1.388;2022-07-10T05:03:43;1.98;;;1.40;;
24233;SDS011;12365;43.554;1.388;2022-07-10T05:06:08;2.78;;;1.58;;
24233;SDS011;12365;43.554;1.388;2022-07-10T05:08:33;3.22;;;1.58;;
24233;SDS011;12365;43.554;1.388;2022-07-10T05:10:59;3.42;;;1.58;;
24233;SDS011;12365;43.554;1.388;2022-07-10T05:13:24;5.30;;;1.60;;
24233;SDS011;12365;43.554;1.388;2022-07-10T05:15:49;3.67;;;1.58;;
24233;SDS011;12365;43.554;1.388;2022-07-10T05:18:15;3.05;;;1.55;;
24233;SDS011;12365;43.554;1.388;2022-07-10T05:20:41;4.53;;;1.80;;
24233;SDS011;12365;43.554;1.388;2022-07-10T05:23:08;4.32;;;1.70;;
24233;SDS011;12365;43.554;1.388;2022-07-10T05:25:34;2.30;;;1.67;;
24233;SDS011;12365;43.554;1.388;2022-07-10T05:28:02;4.85;;;1.85;;
24233;SDS011;12365;43.554;1.388;2022-07-10T05:30:28;4.97;;;1.67;;
24233;SDS011;12365;43.554;1.388;2022-07-10T05:32:53;4.72;;;1.80;;
24233;SDS011;12365;43.554;1.388;2022-07-10T05:35:19;6.20;;;2.00;;
24233;SDS011;12365;43.554;1.388;2022-07-10T05:37:44;5.53;;;1.80;;
24233;SDS011;12365;43.554;1.388;2022-07-10T05:40:09;3.03;;;1.70;;
24233;SDS011;12365;43.554;1.388;2022-07-10T05:42:35;2.92;;;1.58;;
24233;SDS011;12365;43.554;1.388;2022-07-10T05:45:00;3.95;;;1.70;;
24233;SDS011;12365;43.554;1.388;2022-07-10T05:47:26;5.93;;;1.50;;
24233;SDS011;12365;43.554;1.388;2022-07-10T05:49:51;3.75;;;1.60;;
24233;SDS011;12365;43.554;1.388;2022-07-10T05:52:17;4.65;;;1.50;;
24233;SDS011;12365;43.554;1.388;2022-07-10T05:54:42;7.35;;;1.70;;
24233;SDS011;12365;43.554;1.388;2022-07-10T05:57:07;6.28;;;1.80;;
24233;SDS011;12365;43.554;1.388;2022-07-10T05:59:33;3.47;;;1.42;;
24233;SDS011;12365;43.554;1.388;2022-07-10T06:01:59;4.68;;;1.70;;
24233;SDS011;12365;43.554;1.388;2022-07-10T06:04:25;3.22;;;1.70;;
24233;SDS011;12365;43.554;1.388;2022-07-10T06:06:51;2.45;;;1.60;;
24233;SDS011;12365;43.554;1.388;2022-07-10T06:09:16;3.30;;;1.88;;
24233;SDS011;12365;43.554;1.388;2022-07-10T06:11:41;3.35;;;1.80;;
24233;SDS011;12365;43.554;1.388;2022-07-10T06:14:09;3.60;;;1.70;;
24233;SDS011;12365;43.554;1.388;2022-07-10T06:16:34;2.60;;;1.50;;
24233;SDS011;12365;43.554;1.388;2022-07-10T06:19:00;2.35;;;1.67;;
24233;SDS011;12365;43.554;1.388;2022-07-10T06:21:25;9.00;;;1.75;;
24233;SDS011;12365;43.554;1.388;2022-07-10T06:23:50;3.65;;;1.90;;
24233;SDS011;12365;43.554;1.388;2022-07-10T06:26:16;4.15;;;1.85;;
24233;SDS011;12365;43.554;1.388;2022-07-10T06:28:41;3.58;;;1.80;;
24233;SDS011;12365;43.554;1.388;2022-07-10T06:31:07;4.35;;;1.60;;
24233;SDS011;12365;43.554;1.388;2022-07-10T06:33:32;4.20;;;1.80;;
24233;SDS011;12365;43.554;1.388;2022-07-10T06:36:00;3.92;;;1.60;;
24233;SDS011;12365;43.554;1.388;2022-07-10T06:38:25;6.68;;;2.00;;
24233;SDS011;12365;43.554;1.388;2022-07-10T06:40:50;2.92;;;1.77;;
24233;SDS011;12365;43.554;1.388;2022-07-10T06:43:17;6.13;;;1.80;;
24233;SDS011;12365;43.554;1.388;2022-07-10T06:45:42;3.25;;;1.80;;
24233;SDS011;12365;43.554;1.388;2022-07-10T06:48:09;3.45;;;1.60;;
24233;SDS011;12365;43.554;1.388;2022-07-10T06:50:34;7.57;;;1.73;;
24233;SDS011;12365;43.554;1.388;2022-07-10T06:53:01;2.83;;;1.90;;
24233;SDS011;12365;43.554;1.388;2022-07-10T06:55:27;4.75;;;1.60;;
24233;SDS011;12365;43.554;1.388;2022-07-10T06:57:53;2.33;;;1.65;;
24233;SDS011;12365;43.554;1.388;2022-07-10T07:00:18;6.55;;;1.92;;
24233;SDS011;12365;43.554;1.388;2022-07-10T07:02:44;3.58;;;1.60;;
24233;SDS011;12365;43.554;1.388;2022-07-10T07:05:09;4.65;;;1.65;;
24233;SDS011;12365;43.554;1.388;2022-07-10T07:07:35;2.55;;;1.63;;
24233;SDS011;12365;43.554;1.388;2022-07-10T07:10:01;3.97;;;2.08;;
24233;SDS011;12365;43.554;1.388;2022-07-10T07:12:28;2.03;;;1.70;;
24233;SDS011;12365;43.554;1.388;2022-07-10T07:14:54;2.45;;;1.60;;
24233;SDS011;12365;43.554;1.388;2022-07-10T07:17:20;5.70;;;1.90;;
24233;SDS011;12365;43.554;1.388;2022-07-10T07:19:47;2.88;;;1.67;;
24233;SDS011;12365;43.554;1.388;2022-07-10T07:22:32;3.50;;;1.92;;
24233;SDS011;12365;43.554;1.388;2022-07-10T07:25:16;4.13;;;2.10;;
24233;SDS011;12365;43.554;1.388;2022-07-10T07:27:41;5.18;;;1.55;;
24233;SDS011;12365;43.554;1.388;2022-07-10T07:30:08;3.58;;;1.80;;
24233;SDS011;12365;43.554;1.388;2022-07-10T07:32:36;6.28;;;1.70;;
24233;SDS011;12365;43.554;1.388;2022-07-10T07:35:02;4.40;;;1.60;;
24233;SDS011;12365;43.554;1.388;2022-07-10T07:37:42;4.53;;;1.50;;
24233;SDS011;12365;43.554;1.388;2022-07-10T07:40:09;8.77;;;1.67;;
24233;SDS011;12365;43.554;1.388;2022-07-10T07:42:37;5.90;;;1.58;;
24233;SDS011;12365;43.554;1.388;2022-07-10T07:45:03;5.00;;;1.70;;
24233;SDS011;12365;43.554;1.388;2022-07-10T07:47:39;1.83;;;1.40;;
24233;SDS011;12365;43.554;1.388;2022-07-10T07:50:36;5.85;;;1.63;;
24233;SDS011;12365;43.554;1.388;2022-07-10T07:53:02;2.97;;;1.55;;
24233;SDS011;12365;43.554;1.388;2022-07-10T07:55:29;7.00;;;1.60;;
24233;SDS011;12365;43.554;1.388;2022-07-10T07:57:56;4.55;;;1.50;;
24233;SDS011;12365;43.554;1.388;2022-07-10T08:00:22;6.00;;;1.67;;
24233;SDS011;12365;43.554;1.388;2022-07-10T08:02:50;4.40;;;1.80;;
24233;SDS011;12365;43.554;1.388;2022-07-10T08:05:16;4.30;;;1.50;;
24233;SDS011;12365;43.554;1.388;2022-07-10T08:07:43;4.72;;;1.50;;
24233;SDS011;12365;43.554;1.388;2022-07-10T08:10:10;5.90;;;1.35;;
24233;SDS011;12365;43.554;1.388;2022-07-10T08:12:38;2.05;;;1.40;;
24233;SDS011;12365;43.554;1.388;2022-07-10T08:15:09;7.65;;;1.50;;
24233;SDS011;12365;43.554;1.388;2022-07-10T08:17:36;4.22;;;1.60;;
24233;SDS011;12365;43.554;1.388;2022-07-10T08:20:05;3.00;;;1.45;;
24233;SDS011;12365;43.554;1.388;2022-07-10T08:22:32;1.83;;;1.30;;
24233;SDS011;12365;43.554;1.388;2022-07-10T08:24:58;5.68;;;1.45;;
24233;SDS011;12365;43.554;1.388;2022-07-10T08:27:24;3.80;;;1.23;;
24233;SDS011;12365;43.554;1.388;2022-07-10T08:29:49;5.63;;;1.60;;
24233;SDS011;12365;43.554;1.388;2022-07-10T08:32:15;4.05;;;1.63;;
24233;SDS011;12365;43.554;1.388;2022-07-10T08:34:41;4.57;;;1.58;;
24233;SDS011;12365;43.554;1.388;2022-07-10T08:37:06;2.65;;;1.50;;
24233;SDS011;12365;43.554;1.388;2022-07-10T08:39:32;5.05;;;1.60;;
24233;SDS011;12365;43.554;1.388;2022-07-10T08:41:59;6.97;;;1.45;;
24233;SDS011;12365;43.554;1.388;2022-07-10T08:44:25;3.30;;;1.42;;
24233;SDS011;12365;43.554;1.388;2022-07-10T08:46:50;4.85;;;1.40;;
24233;SDS011;12365;43.554;1.388;2022-07-10T08:49:17;3.90;;;1.63;;
24233;SDS011;12365;43.554;1.388;2022-07-10T08:54:30;2.55;;;1.40;;
24233;SDS011;12365;43.554;1.388;2022-07-10T08:59:24;3.65;;;1.58;;
24233;SDS011;12365;43.554;1.388;2022-07-10T09:01:49;4.07;;;1.30;;
24233;SDS011;12365;43.554;1.388;2022-07-10T09:04:16;3.35;;;1.42;;
24233;SDS011;12365;43.554;1.388;2022-07-10T09:06:43;4.75;;;1.40;;
24233;SDS011;12365;43.554;1.388;2022-07-10T09:09:09;3.30;;;1.50;;
24233;SDS011;12365;43.554;1.388;2022-07-10T09:11:36;4.13;;;1.30;;
24233;SDS011;12365;43.554;1.388;2022-07-10T09:14:04;3.67;;;1.50;;
24233;SDS011;12365;43.554;1.388;2022-07-10T09:16:33;4.28;;;1.50;;
24233;SDS011;12365;43.554;1.388;2022-07-10T09:21:46;3.92;;;1.35;;
24233;SDS011;12365;43.554;1.388;2022-07-10T09:24:13;4.82;;;1.35;;
24233;SDS011;12365;43.554;1.388;2022-07-10T09:26:42;2.35;;;1.30;;
24233;SDS011;12365;43.554;1.388;2022-07-10T09:29:11;6.57;;;1.38;;
24233;SDS011;12365;43.554;1.388;2022-07-10T09:34:16;3.33;;;1.13;;
24233;SDS011;12365;43.554;1.388;2022-07-10T09:36:42;2.55;;;1.10;;
24233;SDS011;12365;43.554;1.388;2022-07-10T09:39:08;3.15;;;1.20;;
24233;SDS011;12365;43.554;1.388;2022-07-10T09:41:33;2.53;;;1.23;;
24233;SDS011;12365;43.554;1.388;2022-07-10T09:44:00;6.75;;;1.35;;
24233;SDS011;12365;43.554;1.388;2022-07-10T09:46:35;3.75;;;1.20;;
24233;SDS011;12365;43.554;1.388;2022-07-10T09:51:40;4.90;;;1.30;;
24233;SDS011;12365;43.554;1.388;2022-07-10T09:54:08;3.80;;;1.10;;
24233;SDS011;12365;43.554;1.388;2022-07-10T09:56:47;3.85;;;1.30;;
24233;SDS011;12365;43.554;1.388;2022-07-10T09:59:17;4.72;;;1.30;;
24233;SDS011;12365;43.554;1.388;2022-07-10T10:01:46;2.53;;;1.20;;
24233;SDS011;12365;43.554;1.388;2022-07-10T10:04:17;4.45;;;1.20;;
24233;SDS011;12365;43.554;1.388;2022-07-10T10:06:52;2.40;;;1.23;;
24233;SDS011;12365;43.554;1.388;2022-07-10T10:09:22;3.60;;;1.20;;
24233;SDS011;12365;43.554;1.388;2022-07-10T10:11:51;2.85;;;1.20;;
24233;SDS011;12365;43.554;1.388;2022-07-10T10:14:22;2.55;;;1.00;;
24233;SDS011;12365;43.554;1.388;2022-07-10T10:16:48;2.60;;;1.15;;
24233;SDS011;12365;43.554;1.388;2022-07-10T10:19:14;2.08;;;1.27;;
24233;SDS011;12365;43.554;1.388;2022-07-10T10:22:01;3.55;;;1.27;;
24233;SDS011;12365;43.554;1.388;2022-07-10T10:24:28;2.25;;;1.20;;
24233;SDS011;12365;43.554;1.388;2022-07-10T10:26:56;2.20;;;1.10;;
24233;SDS011;12365;43.554;1.388;2022-07-10T10:29:22;2.35;;;1.00;;
24233;SDS011;12365;43.554;1.388;2022-07-10T10:31:48;3.10;;;1.13;;
24233;SDS011;12365;43.554;1.388;2022-07-10T10:34:15;3.83;;;1.42;;
24233;SDS011;12365;43.554;1.388;2022-07-10T10:37:05;3.43;;;1.27;;
24233;SDS011;12365;43.554;1.388;2022-07-10T10:39:32;3.50;;;1.10;;
24233;SDS011;12365;43.554;1.388;2022-07-10T10:42:50;2.50;;;1.10;;
24233;SDS011;12365;43.554;1.388;2022-07-10T10:45:24;4.15;;;1.10;;
24233;SDS011;12365;43.554;1.388;2022-07-10T10:47:57;2.17;;;1.08;;
24233;SDS011;12365;43.554;1.388;2022-07-10T10:53:19;6.35;;;1.27;;
24233;SDS011;12365;43.554;1.388;2022-07-10T10:58:24;2.25;;;1.20;;
24233;SDS011;12365;43.554;1.388;2022-07-10T11:00:50;1.85;;;1.20;;
24233;SDS011;12365;43.554;1.388;2022-07-10T11:03:17;2.10;;;1.10;;
24233;SDS011;12365;43.554;1.388;2022-07-10T11:05:47;4.35;;;1.20;;
24233;SDS011;12365;43.554;1.388;2022-07-10T11:08:14;2.25;;;1.13;;
24233;SDS011;12365;43.554;1.388;2022-07-10T11:14:06;2.72;;;1.10;;
24233;SDS011;12365;43.554;1.388;2022-07-10T11:16:33;4.25;;;1.65;;
24233;SDS011;12365;43.554;1.388;2022-07-10T11:18:59;2.28;;;1.30;;
24233;SDS011;12365;43.554;1.388;2022-07-10T11:21:25;4.63;;;1.02;;
24233;SDS011;12365;43.554;1.388;2022-07-10T11:24:06;2.95;;;1.15;;
24233;SDS011;12365;43.554;1.388;2022-07-10T11:26:55;4.53;;;1.35;;
24233;SDS011;12365;43.554;1.388;2022-07-10T11:29:27;2.30;;;1.10;;
24233;SDS011;12365;43.554;1.388;2022-07-10T11:31:53;1.25;;;1.00;;
24233;SDS011;12365;43.554;1.388;2022-07-10T11:34:19;2.10;;;1.00;;
24233;SDS011;12365;43.554;1.388;2022-07-10T11:36:46;5.13;;;1.30;;
24233;SDS011;12365;43.554;1.388;2022-07-10T11:39:12;2.78;;;1.00;;
24233;SDS011;12365;43.554;1.388;2022-07-10T11:41:45;2.15;;;0.95;;
24233;SDS011;12365;43.554;1.388;2022-07-10T11:44:14;1.75;;;1.00;;
24233;SDS011;12365;43.554;1.388;2022-07-10T11:49:09;1.42;;;0.95;;
24233;SDS011;12365;43.554;1.388;2022-07-10T11:51:37;4.45;;;0.90;;
24233;SDS011;12365;43.554;1.388;2022-07-10T11:56:37;1.48;;;0.85;;
24233;SDS011;12365;43.554;1.388;2022-07-10T12:01:40;1.52;;;1.00;;
24233;SDS011;12365;43.554;1.388;2022-07-10T12:04:06;1.35;;;0.90;;
24233;SDS011;12365;43.554;1.388;2022-07-10T12:06:34;2.08;;;1.10;;
24233;SDS011;12365;43.554;1.388;2022-07-10T12:09:09;1.52;;;1.02;;
24233;SDS011;12365;43.554;1.388;2022-07-10T12:11:37;9.23;;;1.20;;
24233;SDS011;12365;43.554;1.388;2022-07-10T12:16:39;9.02;;;1.00;;
24233;SDS011;12365;43.554;1.388;2022-07-10T12:19:07;1.65;;;1.00;;
24233;SDS011;12365;43.554;1.388;2022-07-10T12:21:33;3.35;;;1.02;;
24233;SDS011;12365;43.554;1.388;2022-07-10T12:24:00;1.60;;;0.88;;
24233;SDS011;12365;43.554;1.388;2022-07-10T12:26:31;1.83;;;0.90;;
24233;SDS011;12365;43.554;1.388;2022-07-10T12:28:59;2.10;;;0.88;;
24233;SDS011;12365;43.554;1.388;2022-07-10T12:31:26;2.10;;;0.95;;
24233;SDS011;12365;43.554;1.388;2022-07-10T12:33:54;2.90;;;1.00;;
24233;SDS011;12365;43.554;1.388;2022-07-10T12:36:23;1.52;;;0.90;;
24233;SDS011;12365;43.554;1.388;2022-07-10T12:38:56;1.23;;;0.75;;
24233;SDS011;12365;43.554;1.388;2022-07-10T12:41:25;0.88;;;0.80;;
24233;SDS011;12365;43.554;1.388;2022-07-10T12:43:51;1.67;;;0.70;;
24233;SDS011;12365;43.554;1.388;2022-07-10T12:46:18;0.70;;;0.60;;
24233;SDS011;12365;43.554;1.388;2022-07-10T12:56:57;1.70;;;0.80;;
24233;SDS011;12365;43.554;1.388;2022-07-10T12:59:23;1.65;;;0.93;;
24233;SDS011;12365;43.554;1.388;2022-07-10T13:01:49;3.50;;;0.90;;
24233;SDS011;12365;43.554;1.388;2022-07-10T13:04:15;2.78;;;0.82;;
24233;SDS011;12365;43.554;1.388;2022-07-10T13:06:55;1.00;;;0.75;;
24233;SDS011;12365;43.554;1.388;2022-07-10T13:09:39;1.75;;;0.80;;
24233;SDS011;12365;43.554;1.388;2022-07-10T13:12:04;1.25;;;0.93;;
24233;SDS011;12365;43.554;1.388;2022-07-10T13:14:31;1.98;;;0.80;;
24233;SDS011;12365;43.554;1.388;2022-07-10T13:16:56;2.20;;;0.90;;
24233;SDS011;12365;43.554;1.388;2022-07-10T13:19:22;0.80;;;0.70;;
24233;SDS011;12365;43.554;1.388;2022-07-10T13:21:47;1.10;;;0.85;;
24233;SDS011;12365;43.554;1.388;2022-07-10T13:24:12;1.50;;;0.82;;
24233;SDS011;12365;43.554;1.388;2022-07-10T13:26:38;2.10;;;0.80;;
24233;SDS011;12365;43.554;1.388;2022-07-10T13:29:03;2.35;;;0.80;;
24233;SDS011;12365;43.554;1.388;2022-07-10T13:31:28;0.80;;;0.70;;
24233;SDS011;12365;43.554;1.388;2022-07-10T13:33:54;1.27;;;0.70;;
24233;SDS011;12365;43.554;1.388;2022-07-10T13:36:19;4.50;;;0.93;;
24233;SDS011;12365;43.554;1.388;2022-07-10T13:38:45;0.73;;;0.60;;
24233;SDS011;12365;43.554;1.388;2022-07-10T13:41:14;1.15;;;0.73;;
24233;SDS011;12365;43.554;1.388;2022-07-10T13:43:40;1.60;;;0.90;;
24233;SDS011;12365;43.554;1.388;2022-07-10T13:46:05;1.13;;;0.70;;
24233;SDS011;12365;43.554;1.388;2022-07-10T13:48:31;2.50;;;0.70;;
24233;SDS011;12365;43.554;1.388;2022-07-10T13:50:56;0.88;;;0.68;;
24233;SDS011;12365;43.554;1.388;2022-07-10T13:53:22;2.53;;;0.90;;
24233;SDS011;12365;43.554;1.388;2022-07-10T13:55:48;1.35;;;0.60;;
24233;SDS011;12365;43.554;1.388;2022-07-10T13:58:14;3.03;;;0.70;;
24233;SDS011;12365;43.554;1.388;2022-07-10T14:00:40;0.77;;;0.60;;
24233;SDS011;12365;43.554;1.388;2022-07-10T14:03:06;1.27;;;0.70;;
24233;SDS011;12365;43.554;1.388;2022-07-10T14:05:32;0.98;;;0.68;;
24233;SDS011;12365;43.554;1.388;2022-07-10T14:07:58;2.40;;;0.70;;
24233;SDS011;12365;43.554;1.388;2022-07-10T14:10:24;1.10;;;0.63;;
24233;SDS011;12365;43.554;1.388;2022-07-10T14:12:50;1.15;;;0.50;;
24233;SDS011;12365;43.554;1.388;2022-07-10T14:15:17;0.70;;;0.60;;
24233;SDS011;12365;43.554;1.388;2022-07-10T14:17:43;3.30;;;0.70;;
24233;SDS011;12365;43.554;1.388;2022-07-10T14:20:09;0.90;;;0.55;;
24233;SDS011;12365;43.554;1.388;2022-07-10T14:22:35;0.80;;;0.60;;
24233;SDS011;12365;43.554;1.388;2022-07-10T14:25:01;1.83;;;0.70;;
24233;SDS011;12365;43.554;1.388;2022-07-10T14:27:26;1.27;;;0.60;;
24233;SDS011;12365;43.554;1.388;2022-07-10T14:29:56;0.70;;;0.70;;
24233;SDS011;12365;43.554;1.388;2022-07-10T14:32:22;3.17;;;0.70;;
24233;SDS011;12365;43.554;1.388;2022-07-10T14:34:47;0.75;;;0.60;;
24233;SDS011;12365;43.554;1.388;2022-07-10T14:37:13;3.00;;;0.63;;
24233;SDS011;12365;43.554;1.388;2022-07-10T14:39:38;1.85;;;1.10;;
24233;SDS011;12365;43.554;1.388;2022-07-10T14:42:04;0.82;;;0.70;;
24233;SDS011;12365;43.554;1.388;2022-07-10T14:44:32;2.95;;;1.13;;
24233;SDS011;12365;43.554;1.388;2022-07-10T14:46:58;1.08;;;0.70;;
24233;SDS011;12365;43.554;1.388;2022-07-10T14:49:23;0.73;;;0.57;;
24233;SDS011;12365;43.554;1.388;2022-07-10T14:51:49;5.43;;;2.30;;
24233;SDS011;12365;43.554;1.388;2022-07-10T14:54:14;1.75;;;0.90;;
24233;SDS011;12365;43.554;1.388;2022-07-10T14:56:40;1.92;;;1.42;;
24233;SDS011;12365;43.554;1.388;2022-07-10T14:59:07;1.33;;;0.98;;
24233;SDS011;12365;43.554;1.388;2022-07-10T15:01:33;1.48;;;1.00;;
24233;SDS011;12365;43.554;1.388;2022-07-10T15:03:58;10.43;;;4.40;;
24233;SDS011;12365;43.554;1.388;2022-07-10T15:06:24;8.63;;;4.68;;
24233;SDS011;12365;43.554;1.388;2022-07-10T15:08:49;1.13;;;1.00;;
24233;SDS011;12365;43.554;1.388;2022-07-10T15:11:16;1.23;;;0.80;;
24233;SDS011;12365;43.554;1.388;2022-07-10T15:13:43;2.13;;;1.27;;
24233;SDS011;12365;43.554;1.388;2022-07-10T15:16:08;2.53;;;1.42;;
24233;SDS011;12365;43.554;1.388;2022-07-10T15:18:34;1.17;;;0.80;;
24233;SDS011;12365;43.554;1.388;2022-07-10T15:20:59;2.38;;;0.77;;
24233;SDS011;12365;43.554;1.388;2022-07-10T15:23:25;2.38;;;0.60;;
24233;SDS011;12365;43.554;1.388;2022-07-10T15:25:52;2.33;;;0.80;;
24233;SDS011;12365;43.554;1.388;2022-07-10T15:28:18;2.08;;;0.60;;